• Join FlightAware (Why Join?)
  • Login
  • US Flag 
07:26AM EST


 

Airport Tracker/Info


-or-


 

Live Flight TrackerFlight Track Log ✈ N960DL ✈ 09-Jun-2013 ✈ KATL - KRDU

Flight Track Log - Related Links

Times and Time Zones

All times are in EDT time to prevent confusion due to time zone crossing. See the N960DL flight status page for this flight to view local times or setup timezone preferences in your user account.

Time Position Orientation Groundspeed Altitude Reporting Facility
EDT Latitude Longitude Course Direction KTS MPH feet Rate Location/Type
01:47PM 33.6333 -84.4667 118° Southeast 176 203 2,200  Level Atlanta TRACON
01:48PM 33.6167 -84.5333 253° West 256 295 3,800 2,280 Climbing Atlanta TRACON
01:49PM 33.5833 -84.6167 244° Southwest 272 313 6,600 2,940 Climbing Atlanta TRACON
01:50PM 33.5167 -84.6167 180° South 253 291 9,400 1,500 Climbing Atlanta TRACON
01:52PM 33.4700 -84.4622 110° East 302 348 11,200 1,320 Climbing Atlanta Center
01:53PM 33.6116 -83.7932 118° Southeast  Level FlightAware Approximate
01:53PM 33.4786 -84.3328 85° East 358 412 13,400  Level Atlanta Center
01:54PM 33.5228 -84.2058 67° East 396 456 15,300 2,100 Climbing Atlanta Center
01:55PM 33.5814 -84.0761 61° Northeast 418 481 17,600 2,040 Climbing Atlanta Center
01:56PM 33.6378 -83.9414 63° Northeast 439 505 19,400 1,800 Climbing Atlanta Center
01:57PM 33.6939 -83.8017 64° Northeast 454 522 21,200 1,680 Climbing Atlanta Center
01:58PM 33.7478 -83.6592 66° East 466 536 22,800 1,560 Climbing Atlanta Center
01:59PM 33.8036 -83.5114 66° East 472 543 24,400 1,500 Climbing Atlanta Center
02:00PM 33.8653 -83.3483 65° Northeast 477 549 25,800 1,200 Climbing Atlanta Center
02:01PM 33.9269 -83.1950 64° Northeast 483 556 26,800 900 Climbing Atlanta Center
02:02PM 33.9928 -83.0492 61° Northeast 488 562 27,700 1,080 Climbing Atlanta Center
02:03PM 34.0728 -82.9078 56° Northeast 503 579 29,000 600 Climbing Atlanta Center
02:04PM 34.1444 -82.7639 59° Northeast 504 580 29,000  Level Atlanta Center
02:05PM 34.1886 -82.6100 71° East 491 565 29,000  Level Atlanta Center
02:06PM 34.2392 -82.4758 65° Northeast 480 552 29,000  Level Atlanta Center
02:07PM 34.2978 -82.3264 65° Northeast 480 552 29,000 -600 Level Atlanta Center
02:08PM 34.3542 -82.1819 65° Northeast 480 552 27,800 -1,440 Descending Atlanta Center
02:09PM 34.4083 -82.0422 65° Northeast 473 544 26,200 -1,560 Descending Atlanta Center
02:10PM 34.4622 -81.9047 65° Northeast 457 526 24,700 -1,140 Descending Atlanta Center
02:11PM 34.5078 -81.7650 68° East 447 514 24,000 -360 Descending Atlanta Center
02:12PM 34.5553 -81.6250 68° East 442 509 24,000  Level Atlanta Center
02:13PM 34.6044 -81.4797 68° East 447 514 24,000  Level Atlanta Center
02:14PM 34.6514 -81.3319 69° East 457 526 24,000  Level Atlanta Center
02:15PM 34.7003 -81.1814 68° East 462 532 24,000 -480 Level Atlanta Center
02:16PM 34.7486 -81.0306 69° East 472 543 23,100 -1,140 Descending Atlanta Center
02:17PM 34.7972 -80.8844 68° East 464 534 21,800 -1,320 Descending Atlanta Center
02:18PM 34.8456 -80.7411 68° East 458 527 20,500 -1,140 Descending Atlanta Center
02:20PM 34.9317 -80.4739 68° East 442 509 18,600 -1,080 Descending Washington Center
02:21PM 34.9722 -80.3494 68° East 435 501 17,600 -840 Descending Washington Center
02:22PM 35.0175 -80.2050 69° East 429 494 17,000 -300 Descending Washington Center
02:23PM 35.0553 -80.0881 68° East 419 482 17,000  Level Washington Center
02:24PM 35.1025 -79.9433 68° East 419 482 17,000  Level Washington Center
02:25PM 35.1647 -79.8375 54° Northeast 410 472 17,000  Level Washington Center
02:26PM 35.2461 -79.7197 50° Northeast 416 479 17,000 -780 Level Washington Center
02:27PM 35.3075 -79.6286 50° Northeast 427 491 15,600 -2,100 Descending Washington Center
02:28PM 35.3819 -79.5228 49° Northeast 406 467 13,200 -2,340 Descending Washington Center
02:29PM 35.4475 -79.4317 49° Northeast 391 450 11,200 -1,920 Descending Washington Center
02:29PM 35.4606 -79.4197 37° Northeast 394 453 11,000 -720 Descending Washington Center
02:30PM 35.5211 -79.3536 42° Northeast 354 407 10,500 -540 Descending Washington Center
02:30PM 35.5383 -79.3314 46° Northeast 356 410 10,500 -300 Level Washington Center
02:31PM 35.5822 -79.2619 52° Northeast 310 357 10,200 -420 Descending Washington Center
02:32PM 35.6286 -79.1850 53° Northeast 301 346 9,800 -360 Descending Washington Center
02:32PM 35.6417 -79.1625 54° Northeast 306 352 9,800 -720 Level Washington Center
02:33PM 35.6789 -79.1028 52° Northeast 299 344 9,100 -1,020 Descending Washington Center
02:34PM 35.7292 -79.0283 50° Northeast 288 331 8,000 -600 Descending Washington Center
02:35PM 35.7911 -78.9722 36° Northeast 252 290 8,000  Level Washington Center
02:36PM 35.8511 -78.9208 35° Northeast 238 274 8,000 -420 Level Washington Center
02:37PM 35.9067 -78.8719 35° Northeast 241 277 7,200 -1,260 Descending Washington Center
02:38PM 35.9747 -78.8208 31° Northeast 233 268 5,200 -1,800 Descending Washington Center
02:39PM 36.0181 -78.7636 47° Northeast 230 265 3,300 -1,320 Descending Washington Center
02:40PM 36.0067 -78.7169 107° East 219 252 2,900 -660 Descending Washington Center
02:41PM 35.9547 -78.7172 180° South 202 232 2,200 -960 Descending Washington Center
02:42PM 35.9161 -78.7492 214° Southwest 153 176 1,100 -1,080 Descending Washington Center
02:44PM 35.8776 -78.7875 202° Southwest  Level Estimated
02:51PM 35.8776 -78.7875 202° Southwest  Level Estimated